createdAt,value
2019-04-27T00:00:58.604Z,94830.62
2019-04-27T00:03:41.192Z,94826.89
2019-04-27T00:06:08.694Z,94820.16
2019-04-27T00:08:43.151Z,94820.16
2019-04-27T00:11:29.360Z,94824.76
2019-04-27T00:13:58.299Z,94816.01
2019-04-27T00:16:40.519Z,94816.01
2019-04-27T00:19:31.802Z,94821.17
2019-04-27T00:22:10.691Z,94824.70
2019-04-27T00:24:39.665Z,94820.03
2019-04-27T00:27:08.297Z,94818.78
2019-04-27T00:29:37.184Z,94807.27
2019-04-27T00:32:05.851Z,94809.76
2019-04-27T00:34:34.853Z,94800.88
2019-04-27T00:37:09.920Z,94795.16
2019-04-27T00:39:43.443Z,94788.86
2019-04-27T00:42:13.506Z,94791.55
2019-04-27T00:44:42.996Z,94782.27
2019-04-27T00:47:11.696Z,94780.81
2019-04-27T00:49:40.314Z,94787.22
2019-04-27T00:52:08.900Z,94781.45
2019-04-27T00:54:37.587Z,94777.50
2019-04-27T00:57:13.100Z,94771.86
2019-04-27T01:00:05.172Z,94771.86
2019-04-27T01:02:44.510Z,94774.08
2019-04-27T01:05:31.109Z,94772.61
2019-04-27T01:07:59.757Z,94768.02
2019-04-27T01:10:28.358Z,94775.52
2019-04-27T01:12:56.976Z,94781.86
2019-04-27T01:15:25.574Z,94783.89
2019-04-27T01:18:07.131Z,94784.88
2019-04-27T01:20:24.589Z,94787.56
2019-04-27T01:22:53.284Z,94782.64
2019-04-27T01:25:23.524Z,94776.99
2019-04-27T01:28:11.181Z,94776.72
2019-04-27T01:30:51.348Z,94776.08
2019-04-27T01:33:20.059Z,94774.03
2019-04-27T01:35:49.209Z,94767.42
2019-04-27T01:38:19.195Z,94766.94
2019-04-27T01:40:49.706Z,94765.46
2019-04-27T01:43:18.701Z,94755.44
2019-04-27T01:45:48.825Z,94762.11
2019-04-27T01:48:23.800Z,94755.05
2019-04-27T01:50:49.222Z,94754.52
2019-04-27T01:53:19.060Z,94751.67
2019-04-27T01:55:49.162Z,94753.09
2019-04-27T01:58:20.214Z,94744.80
2019-04-27T02:01:09.575Z,94734.72
2019-04-27T02:03:59.049Z,94737.10
2019-04-27T02:06:29.500Z,94739.55
2019-04-27T02:08:59.557Z,94734.27
2019-04-27T02:11:28.820Z,94733.88
2019-04-27T02:13:59.448Z,94731.58
2019-04-27T02:16:29.003Z,94741.79
2019-04-27T02:18:58.631Z,94741.77
2019-04-27T02:21:29.425Z,94732.25
2019-04-27T02:23:59.851Z,94733.44
2019-04-27T02:26:29.907Z,94737.09
2019-04-27T02:29:19.486Z,94734.90
2019-04-27T02:32:03.095Z,94735.92
2019-04-27T02:34:34.445Z,94737.98
2019-04-27T02:37:03.087Z,94745.21
2019-04-27T02:39:31.634Z,94734.33
2019-04-27T02:42:00.484Z,94734.94
2019-04-27T02:44:35.176Z,94734.06
2019-04-27T02:47:03.857Z,94730.76
2019-04-27T02:49:32.442Z,94726.36
2019-04-27T02:52:06.490Z,94718.55
2019-04-27T02:54:35.366Z,94711.98
2019-04-27T02:57:04.055Z,94703.58
2019-04-27T02:59:32.893Z,94711.13
2019-04-27T03:02:06.999Z,94710.33
2019-04-27T03:04:35.590Z,94705.68
2019-04-27T03:07:04.289Z,94712.27
2019-04-27T03:09:32.898Z,94720.58
2019-04-27T03:12:02.869Z,94704.94
2019-04-27T03:14:50.614Z,94706.59
2019-04-27T03:17:27.049Z,94709.23
2019-04-27T03:20:20.318Z,94704.52
2019-04-27T03:22:53.033Z,94701.23
2019-04-27T03:25:32.037Z,94689.91
2019-04-27T03:28:10.671Z,94682.27
2019-04-27T03:30:42.465Z,94687.95
2019-04-27T03:33:12.039Z,94689.67
2019-04-27T03:35:43.035Z,94685.20
2019-04-27T03:38:12.521Z,94685.76
2019-04-27T03:40:41.366Z,94685.34
2019-04-27T03:43:15.126Z,94683.69
2019-04-27T03:45:43.709Z,94679.89
2019-04-27T03:48:12.382Z,94680.17
2019-04-27T03:50:50.405Z,94677.08
2019-04-27T03:53:39.435Z,94674.59
2019-04-27T03:56:20.052Z,94672.52
2019-04-27T03:58:52.217Z,94675.36
2019-04-27T04:01:20.885Z,94670.41
2019-04-27T04:03:50.304Z,94666.78
2019-04-27T04:06:19.410Z,94665.52
2019-04-27T04:08:50.249Z,94675.03
2019-04-27T04:11:39.535Z,94673.95
2019-04-27T04:14:12.070Z,94664.19
2019-04-27T04:16:51.751Z,94667.84
2019-04-27T04:19:20.332Z,94665.73
2019-04-27T04:21:50.334Z,94654.77
2019-04-27T04:24:19.981Z,94667.72
2019-04-27T04:26:50.320Z,94669.03
2019-04-27T04:29:20.332Z,94671.20
2019-04-27T04:31:50.276Z,94667.38
2019-04-27T04:34:19.931Z,94667.11
2019-04-27T04:36:50.400Z,94669.80
2019-04-27T04:39:19.929Z,94659.59
2019-04-27T04:41:59.685Z,94652.31
2019-04-27T04:44:45.754Z,94654.08
2019-04-27T04:47:33.924Z,94654.95
2019-04-27T04:50:11.153Z,94644.52
2019-04-27T04:52:32.922Z,94654.95
2019-04-27T04:55:02.580Z,94643.39
2019-04-27T04:57:31.719Z,94644.77
2019-04-27T05:00:00.590Z,94653.60
2019-04-27T05:02:29.459Z,94647.25
2019-04-27T05:04:59.100Z,94653.43
2019-04-27T05:07:29.592Z,94645.84
2019-04-27T05:09:58.837Z,94650.07
2019-04-27T05:12:28.773Z,94652.29
2019-04-27T05:14:59.034Z,94649.01
2019-04-27T05:17:29.524Z,94647.30
2019-04-27T05:19:59.057Z,94647.30
2019-04-27T05:22:29.536Z,94637.12
2019-04-27T05:25:01.269Z,94637.12
2019-04-27T05:27:31.090Z,94638.34
2019-04-27T05:30:00.365Z,94637.63
2019-04-27T05:32:29.450Z,94632.44
2019-04-27T05:34:59.616Z,94632.44
2019-04-27T05:37:31.627Z,94630.27
2019-04-27T05:39:58.969Z,94630.27
2019-04-27T05:42:28.661Z,94620.57
2019-04-27T05:45:15.374Z,94623.58
2019-04-27T05:47:51.770Z,94617.75
2019-04-27T05:50:21.949Z,94629.00
2019-04-27T05:52:49.697Z,94621.05
2019-04-27T05:55:19.193Z,94617.84
2019-04-27T05:57:49.034Z,94621.78
2019-04-27T06:00:19.488Z,94615.58
2019-04-27T06:02:48.798Z,94612.94
2019-04-27T06:05:18.975Z,94622.14
2019-04-27T06:07:48.734Z,94612.16
2019-04-27T06:10:17.586Z,94610.45
2019-04-27T06:12:46.228Z,94607.45
2019-04-27T06:15:15.047Z,94608.31
2019-04-27T06:17:44.270Z,94604.80
2019-04-27T06:20:13.180Z,94600.88
2019-04-27T06:22:41.775Z,94598.28
2019-04-27T06:25:11.893Z,94606.58
2019-04-27T06:27:40.905Z,94604.03
2019-04-27T06:30:10.325Z,94601.52
2019-04-27T06:32:39.537Z,94599.77
2019-04-27T06:35:10.762Z,94599.69
2019-04-27T06:37:39.149Z,94594.92
2019-04-27T06:40:09.632Z,94595.16
2019-04-27T06:42:39.828Z,94602.52
2019-04-27T06:45:09.925Z,94600.97
2019-04-27T06:47:39.635Z,94603.19
2019-04-27T06:50:09.441Z,94609.69
2019-04-27T06:52:39.041Z,94596.30
2019-04-27T06:55:09.357Z,94602.17
2019-04-27T06:57:39.409Z,94599.77
2019-04-27T07:00:09.220Z,94600.29
2019-04-27T07:02:39.234Z,94585.34
2019-04-27T07:05:08.979Z,94587.41
2019-04-27T07:07:39.340Z,94591.85
2019-04-27T07:10:08.781Z,94600.52
2019-04-27T07:12:40.728Z,94595.81
2019-04-27T07:15:08.898Z,94589.37
2019-04-27T07:17:38.861Z,94588.72
2019-04-27T07:20:09.118Z,94579.17
2019-04-27T07:22:39.668Z,94583.47
2019-04-27T07:25:09.010Z,94579.95
2019-04-27T07:27:39.455Z,94579.35
2019-04-27T07:30:11.792Z,94577.56
2019-04-27T07:32:39.257Z,94580.84
2019-04-27T07:35:09.651Z,94577.45
2019-04-27T07:37:39.289Z,94578.02
2019-04-27T07:40:09.101Z,94573.17
2019-04-27T07:42:40.878Z,94571.87
2019-04-27T07:45:23.542Z,94560.92
2019-04-27T07:47:52.489Z,94562.94
2019-04-27T07:50:21.378Z,94554.88
2019-04-27T07:52:49.968Z,94552.45
2019-04-27T07:55:18.816Z,94558.58
2019-04-27T07:57:47.412Z,94558.45
2019-04-27T08:00:19.129Z,94564.92
2019-04-27T08:02:48.649Z,94561.09
2019-04-27T08:05:19.104Z,94560.70
2019-04-27T08:07:49.138Z,94555.90
2019-04-27T08:10:19.348Z,94552.95
2019-04-27T08:12:49.835Z,94550.30
2019-04-27T08:15:19.081Z,94557.95
2019-04-27T08:17:49.225Z,94552.41
2019-04-27T08:20:19.218Z,94557.30
2019-04-27T08:22:49.648Z,94546.70
2019-04-27T08:25:18.951Z,94547.80
2019-04-27T08:27:54.575Z,94548.39
2019-04-27T08:30:33.976Z,94549.52
2019-04-27T08:33:04.374Z,94548.44
2019-04-27T08:35:32.993Z,94545.31
2019-04-27T08:38:01.600Z,94552.75
2019-04-27T08:40:30.209Z,94548.98
2019-04-27T08:42:59.328Z,94549.73
2019-04-27T08:45:29.305Z,94561.02
2019-04-27T08:47:59.451Z,94555.68
2019-04-27T08:50:28.732Z,94560.31
2019-04-27T08:52:57.291Z,94550.19
2019-04-27T08:55:26.185Z,94548.64
2019-04-27T08:57:54.857Z,94549.36
2019-04-27T09:00:23.877Z,94539.80
2019-04-27T09:02:52.752Z,94547.02
2019-04-27T09:05:28.911Z,94549.02
2019-04-27T09:08:16.761Z,94550.79
2019-04-27T09:10:51.746Z,94546.57
2019-04-27T09:13:32.449Z,94540.42
2019-04-27T09:16:15.522Z,94543.36
2019-04-27T09:18:44.367Z,94543.52
2019-04-27T09:21:13.064Z,94532.48
2019-04-27T09:23:41.925Z,94533.43
2019-04-27T09:26:11.171Z,94532.92
2019-04-27T09:28:40.082Z,94526.43
2019-04-27T09:31:09.276Z,94526.53
2019-04-27T09:33:38.251Z,94517.55
2019-04-27T09:36:06.823Z,94513.57
2019-04-27T09:38:35.862Z,94523.91
2019-04-27T09:41:07.016Z,94524.77
2019-04-27T09:43:36.747Z,94510.86
2019-04-27T09:46:05.906Z,94516.33
2019-04-27T09:48:36.192Z,94518.52
2019-04-27T09:51:06.406Z,94519.64
2019-04-27T09:53:36.426Z,94517.33
2019-04-27T09:56:05.908Z,94515.53
2019-04-27T09:58:36.625Z,94518.66
2019-04-27T10:01:06.618Z,94523.83
2019-04-27T10:03:36.160Z,94519.06
2019-04-27T10:06:05.951Z,94515.83
2019-04-27T10:08:36.556Z,94516.03
2019-04-27T10:11:05.966Z,94515.42
2019-04-27T10:13:36.399Z,94513.66
2019-04-27T10:16:05.364Z,94508.68
2019-04-27T10:18:33.997Z,94506.15
2019-04-27T10:21:02.597Z,94506.90
2019-04-27T10:23:31.317Z,94503.25
2019-04-27T10:26:00.285Z,94503.62
2019-04-27T10:28:29.167Z,94503.95
2019-04-27T10:30:58.029Z,94497.14
2019-04-27T10:33:27.821Z,94495.34
2019-04-27T10:35:56.630Z,94491.58
2019-04-27T10:38:25.893Z,94484.13
2019-04-27T10:40:55.132Z,94483.71
2019-04-27T10:43:25.837Z,94483.55
2019-04-27T10:45:56.354Z,94482.15
2019-04-27T10:48:26.508Z,94479.27
2019-04-27T10:50:55.504Z,94477.97
2019-04-27T10:53:24.196Z,94477.91
2019-04-27T10:55:52.788Z,94478.47
2019-04-27T10:58:21.685Z,94471.64
2019-04-27T11:00:53.288Z,94468.11
2019-04-27T11:03:41.356Z,94470.34
2019-04-27T11:06:28.781Z,94469.54
2019-04-27T11:08:57.477Z,94473.16
2019-04-27T11:11:27.699Z,94473.34
2019-04-27T11:13:58.241Z,94472.98
2019-04-27T11:16:26.823Z,94479.89
2019-04-27T11:18:56.126Z,94477.88
2019-04-27T11:21:26.572Z,94480.23
2019-04-27T11:23:56.022Z,94478.13
2019-04-27T11:26:26.220Z,94476.31
2019-04-27T11:28:54.982Z,94475.86
2019-04-27T11:31:23.594Z,94472.73
2019-04-27T11:33:52.780Z,94479.19
2019-04-27T11:36:38.987Z,94476.97
2019-04-27T11:39:12.758Z,94471.41
2019-04-27T11:41:41.356Z,94477.73
2019-04-27T11:44:10.214Z,94477.95
2019-04-27T11:46:38.857Z,94478.50
2019-04-27T11:49:07.457Z,94470.41
2019-04-27T11:51:36.603Z,94467.52
2019-04-27T11:54:09.308Z,94462.33
2019-04-27T11:56:37.904Z,94462.23
2019-04-27T11:59:07.110Z,94457.11
2019-04-27T12:01:35.899Z,94451.23
2019-04-27T12:04:05.857Z,94454.72
2019-04-27T12:06:35.869Z,94452.67
2019-04-27T12:09:06.412Z,94455.66
2019-04-27T12:11:36.297Z,94454.05
2019-04-27T12:14:06.248Z,94450.31
2019-04-27T12:16:36.161Z,94462.19
2019-04-27T12:19:06.525Z,94454.02
2019-04-27T12:21:36.207Z,94467.64
2019-04-27T12:24:05.817Z,94462.72
2019-04-27T12:26:53.442Z,94461.23
2019-04-27T12:29:24.025Z,94456.27
2019-04-27T12:31:52.622Z,94450.78
2019-04-27T12:34:21.254Z,94446.13
2019-04-27T12:36:53.152Z,94442.11
2019-04-27T12:39:20.673Z,94441.60
2019-04-27T12:41:49.532Z,94439.03
2019-04-27T12:44:18.222Z,94443.84
2019-04-27T12:46:47.081Z,94441.06
2019-04-27T12:49:16.202Z,94441.68
2019-04-27T12:51:45.665Z,94440.58
2019-04-27T12:54:23.618Z,94447.58
2019-04-27T12:57:10.190Z,94435.27
2019-04-27T12:59:59.435Z,94437.13
2019-04-27T13:02:30.870Z,94444.77
2019-04-27T13:04:59.793Z,94427.97
2019-04-27T13:07:28.483Z,94426.09
2019-04-27T13:09:57.404Z,94428.26
2019-04-27T13:12:27.349Z,94452.82
2019-04-27T13:14:56.044Z,94458.55
2019-04-27T13:17:26.518Z,94470.17
2019-04-27T13:19:56.091Z,94479.82
2019-04-27T13:22:25.271Z,94483.88
2019-04-27T13:24:53.897Z,94476.70
2019-04-27T13:27:22.508Z,94479.34
2019-04-27T13:29:51.127Z,94484.90
2019-04-27T13:32:19.969Z,94486.30
2019-04-27T13:34:48.585Z,94490.23
2019-04-27T13:37:36.501Z,94497.87
2019-04-27T13:40:09.662Z,94508.08
2019-04-27T13:42:50.169Z,94512.41
2019-04-27T13:45:30.625Z,94512.82
2019-04-27T13:48:16.788Z,94512.82
2019-04-27T13:50:49.181Z,94499.73
2019-04-27T13:53:17.810Z,94499.73
2019-04-27T13:55:48.405Z,94508.91
2019-04-27T13:58:16.788Z,94504.09
2019-04-27T14:00:45.377Z,94500.25
2019-04-27T14:03:14.368Z,94500.25
2019-04-27T14:05:44.295Z,94505.91
2019-04-27T14:08:12.891Z,94511.09
2019-04-27T14:10:41.508Z,94509.94
2019-04-27T14:13:11.080Z,94497.70
2019-04-27T14:15:39.823Z,94495.20
2019-04-27T14:18:08.921Z,94495.20
2019-04-27T14:20:38.955Z,94486.06
2019-04-27T14:23:18.912Z,94496.54
2019-04-27T14:25:47.512Z,94469.30
2019-04-27T14:28:16.207Z,94469.30
2019-04-27T14:30:44.852Z,94472.66
2019-04-27T14:33:13.569Z,94466.05
2019-04-27T14:35:42.214Z,94454.30
2019-04-27T14:38:11.130Z,94441.28
2019-04-27T14:40:39.725Z,94427.42
2019-04-27T14:43:08.602Z,94428.87
2019-04-27T14:45:38.309Z,94452.13
2019-04-27T14:48:08.301Z,94452.13
2019-04-27T14:50:40.239Z,94446.09
2019-04-27T14:53:08.819Z,94450.36
2019-04-27T14:55:38.779Z,94444.34
2019-04-27T14:58:08.758Z,94458.02
2019-04-27T15:00:38.486Z,94436.45
2019-04-27T15:03:07.125Z,94444.70
2019-04-27T15:05:35.734Z,94444.70
2019-04-27T15:08:08.202Z,94436.37
2019-04-27T15:10:36.137Z,94436.20
2019-04-27T15:13:06.489Z,94434.28
2019-04-27T15:15:35.449Z,94434.28
2019-04-27T15:18:05.578Z,94416.45
2019-04-27T15:20:41.586Z,94416.45
2019-04-27T15:23:10.212Z,94431.83
2019-04-27T15:25:44.965Z,94439.61
2019-04-27T15:28:12.159Z,94444.59
2019-04-27T15:31:03.651Z,94448.00
2019-04-27T15:33:53.295Z,94448.06
2019-04-27T15:36:29.899Z,94455.83
2019-04-27T15:39:00.579Z,94470.44
2019-04-27T15:41:44.091Z,94464.47
2019-04-27T15:44:12.780Z,94462.75
2019-04-27T15:46:41.643Z,94470.23
2019-04-27T15:49:11.669Z,94478.77
2019-04-27T15:51:40.609Z,94488.56
2019-04-27T15:54:09.234Z,94505.34
2019-04-27T15:56:38.078Z,94512.84
2019-04-27T15:59:08.132Z,94524.31
2019-04-27T16:01:39.529Z,94521.02
2019-04-27T16:04:11.196Z,94522.05
2019-04-27T16:06:38.518Z,94514.80
2019-04-27T16:09:10.575Z,94526.78
2019-04-27T16:11:39.164Z,94522.78
2019-04-27T16:14:07.919Z,94525.16
2019-04-27T16:16:38.513Z,94522.36
2019-04-27T16:19:10.233Z,94514.77
2019-04-27T16:21:41.581Z,94522.09
2019-04-27T16:24:08.521Z,94517.01
2019-04-27T16:26:38.668Z,94515.52
2019-04-27T16:29:08.300Z,94521.47
2019-04-27T16:31:38.474Z,94531.91
2019-04-27T16:34:08.329Z,94533.14
2019-04-27T16:36:43.177Z,94538.39
2019-04-27T16:39:09.848Z,94538.73
2019-04-27T16:41:38.895Z,94538.63
2019-04-27T16:44:10.728Z,94530.11
2019-04-27T16:46:42.808Z,94522.42
2019-04-27T16:49:13.640Z,94525.32
2019-04-27T16:51:40.503Z,94529.77
2019-04-27T16:54:11.097Z,94530.86
2019-04-27T16:56:39.723Z,94530.69
2019-04-27T16:59:33.818Z,94533.88
2019-04-27T17:01:41.778Z,94533.02
2019-04-27T17:04:11.311Z,94530.26
2019-04-27T17:06:45.876Z,94536.63
2019-04-27T17:09:11.776Z,94542.16
2019-04-27T17:11:43.959Z,94538.63
2019-04-27T17:14:21.911Z,94547.86
2019-04-27T17:16:59.255Z,94549.80
2019-04-27T17:19:35.803Z,94550.91
2019-04-27T17:22:04.364Z,94557.22
2019-04-27T17:24:44.057Z,94554.31
2019-04-27T17:27:11.140Z,94559.33
2019-04-27T17:29:40.050Z,94552.45
2019-04-27T17:32:10.930Z,94548.48
2019-04-27T17:34:39.781Z,94534.80
2019-04-27T17:37:08.432Z,94530.28
2019-04-27T17:39:38.742Z,94533.53
2019-04-27T17:42:08.426Z,94538.55
2019-04-27T17:44:39.200Z,94537.11
2019-04-27T17:47:10.324Z,94540.00
2019-04-27T17:49:38.209Z,94541.45
2019-04-27T17:52:08.646Z,94571.50
2019-04-27T17:54:40.920Z,94571.50
2019-04-27T17:57:10.035Z,94580.92
2019-04-27T17:59:38.295Z,94618.02
2019-04-27T18:02:08.796Z,94618.02
2019-04-27T18:04:40.799Z,94633.00
2019-04-27T18:07:08.924Z,94620.31
2019-04-27T18:09:43.329Z,94614.33
2019-04-27T18:12:14.668Z,94618.55
2019-04-27T18:14:41.184Z,94617.72
2019-04-27T18:17:12.146Z,94611.47
2019-04-27T18:19:47.482Z,94615.15
2019-04-27T18:22:17.897Z,94611.56
2019-04-27T18:25:03.399Z,94607.77
2019-04-27T18:27:39.006Z,94609.40
2019-04-27T18:30:23.391Z,94607.73
2019-04-27T18:32:52.271Z,94611.40
2019-04-27T18:35:26.334Z,94615.28
2019-04-27T18:37:53.578Z,94619.59
2019-04-27T18:40:24.197Z,94620.42
2019-04-27T18:42:52.394Z,94621.31
2019-04-27T18:45:21.075Z,94618.63
2019-04-27T18:47:55.697Z,94629.23
2019-04-27T18:50:48.424Z,94637.25
2019-04-27T18:53:23.174Z,94648.05
2019-04-27T18:55:57.574Z,94649.38
2019-04-27T18:58:20.721Z,94651.19
2019-04-27T19:00:49.442Z,94652.21
2019-04-27T19:03:18.415Z,94657.15
2019-04-27T19:05:48.116Z,94655.64
2019-04-27T19:08:17.811Z,94657.56
2019-04-27T19:10:47.470Z,94663.31
2019-04-27T19:13:16.153Z,94654.12
2019-04-27T19:15:44.756Z,94654.69
2019-04-27T19:18:13.635Z,94673.18
2019-04-27T19:20:42.336Z,94667.47
2019-04-27T19:23:11.018Z,94675.47
2019-04-27T19:25:45.961Z,94673.77
2019-04-27T19:28:26.208Z,94674.24
2019-04-27T19:30:59.432Z,94679.78
2019-04-27T19:33:30.385Z,94679.78
2019-04-27T19:35:58.557Z,94688.95
2019-04-27T19:38:28.918Z,94687.00
2019-04-27T19:40:57.601Z,94688.02
2019-04-27T19:43:26.203Z,94696.64
2019-04-27T19:45:55.030Z,94693.02
2019-04-27T19:48:23.695Z,94698.21
2019-04-27T19:50:52.313Z,94698.00
2019-04-27T19:53:20.934Z,94698.76
2019-04-27T19:56:01.535Z,94700.32
2019-04-27T19:58:33.583Z,94701.83
2019-04-27T20:01:11.914Z,94708.20
2019-04-27T20:03:49.096Z,94701.23
2019-04-27T20:06:18.812Z,94709.30
2019-04-27T20:08:49.507Z,94701.87
2019-04-27T20:11:18.100Z,94704.84
2019-04-27T20:13:46.732Z,94701.36
2019-04-27T20:16:15.368Z,94706.83
2019-04-27T20:18:43.984Z,94706.25
2019-04-27T20:21:13.597Z,94708.66
2019-04-27T20:23:42.245Z,94702.09
2019-04-27T20:26:10.855Z,94715.65
2019-04-27T20:28:41.318Z,94712.49
2019-04-27T20:31:09.969Z,94716.70
2019-04-27T20:33:38.608Z,94721.22
2019-04-27T20:36:07.210Z,94721.59
2019-04-27T20:38:36.834Z,94724.19
2019-04-27T20:41:05.484Z,94737.30
2019-04-27T20:43:34.113Z,94738.36
2019-04-27T20:46:02.807Z,94748.11
2019-04-27T20:48:31.531Z,94745.28
2019-04-27T20:51:01.263Z,94747.05
2019-04-27T20:53:35.067Z,94751.78
2019-04-27T20:56:03.717Z,94760.01
2019-04-27T20:58:32.583Z,94762.69
2019-04-27T21:01:01.761Z,94768.84
2019-04-27T21:03:41.226Z,94769.56
2019-04-27T21:06:15.718Z,94762.21
2019-04-27T21:08:44.534Z,94777.77
2019-04-27T21:11:13.150Z,94771.86
2019-04-27T21:13:41.763Z,94775.22
2019-04-27T21:16:12.450Z,94777.11
2019-04-27T21:18:45.076Z,94775.16
2019-04-27T21:21:13.687Z,94776.86
2019-04-27T21:23:42.294Z,94785.99
2019-04-27T21:26:10.930Z,94785.98
2019-04-27T21:28:41.570Z,94782.52
2019-04-27T21:31:12.520Z,94784.88
2019-04-27T21:33:40.863Z,94777.56
2019-04-27T21:36:11.578Z,94782.79
2019-04-27T21:38:42.551Z,94778.53
2019-04-27T21:41:10.679Z,94784.87
2019-04-27T21:43:39.279Z,94792.25
2019-04-27T21:46:07.891Z,94789.61
2019-04-27T21:48:38.508Z,94789.21
2019-04-27T21:51:07.234Z,94790.77
2019-04-27T21:54:03.835Z,94794.00
2019-04-27T21:56:32.551Z,94792.20
2019-04-27T21:59:01.178Z,94794.30
2019-04-27T22:01:31.940Z,94790.91
2019-04-27T22:04:01.201Z,94802.09
2019-04-27T22:06:29.882Z,94800.20
2019-04-27T22:08:58.486Z,94793.94
2019-04-27T22:11:27.120Z,94800.58
2019-04-27T22:13:55.971Z,94798.50
2019-04-27T22:16:24.629Z,94802.66
2019-04-27T22:18:53.223Z,94801.17
2019-04-27T22:21:21.963Z,94806.59
2019-04-27T22:24:05.566Z,94802.19
2019-04-27T22:26:34.306Z,94802.08
2019-04-27T22:29:02.974Z,94806.95
2019-04-27T22:31:31.632Z,94804.70
2019-04-27T22:34:01.864Z,94799.61
2019-04-27T22:36:30.655Z,94805.45
2019-04-27T22:39:03.159Z,94810.64
2019-04-27T22:41:48.948Z,94816.34
2019-04-27T22:44:27.834Z,94815.85
2019-04-27T22:46:56.589Z,94818.43
2019-04-27T22:49:25.190Z,94818.41
2019-04-27T22:51:54.038Z,94818.64
2019-04-27T22:54:22.678Z,94824.67
2019-04-27T22:56:52.276Z,94820.26
2019-04-27T22:59:41.313Z,94817.14
2019-04-27T23:02:29.324Z,94825.38
2019-04-27T23:05:01.771Z,94826.45
2019-04-27T23:07:31.578Z,94831.64
2019-04-27T23:10:01.500Z,94831.16
2019-04-27T23:12:31.713Z,94827.52
2019-04-27T23:15:00.452Z,94831.94
2019-04-27T23:17:46.551Z,94830.66
2019-04-27T23:20:15.531Z,94830.28
2019-04-27T23:22:44.389Z,94825.44
2019-04-27T23:25:13.295Z,94820.97
2019-04-27T23:27:41.879Z,94823.62
2019-04-27T23:30:11.383Z,94820.23
2019-04-27T23:32:43.492Z,94820.53
2019-04-27T23:35:12.502Z,94816.10
2019-04-27T23:37:41.111Z,94812.95
2019-04-27T23:40:11.196Z,94815.56
2019-04-27T23:42:41.646Z,94813.92
2019-04-27T23:45:10.817Z,94815.30
2019-04-27T23:47:39.406Z,94817.22
2019-04-27T23:50:08.451Z,94820.68
2019-04-27T23:52:54.841Z,94815.66
2019-04-27T23:55:25.974Z,94818.21
2019-04-27T23:57:55.027Z,94815.77
